Agat, GU

3:46 PM ChST on March 02, 2015 (GMT +1000)
Ordot Dump | Change Station
CLOSE
Current Station
Personal Weather Station
Location: Chalan Pago Ordot,
Elevation: 282 ft
Nearby Weather Stations

Elev 282 ft 13.44 °N, 144.75 °E | Updated 3 seconds ago

Scattered Clouds
Scattered Clouds
83.8 °F
Feels Like 92 °F
N
2.0
Wind Variable Wind from East
Gusts 5.0 mph

Today
High -- | Low -- °F
--% Chance of Precip.
Yesterday
High -- | Low -- °F
Precip. -- in
6:37 AM 6:30 PM
Waxing Gibbous, 89% visible
Pressure 29.80 in
Visibility 10.0 miles
Clouds Few 2700 ft
Scattered Clouds 4900 ft
Heat Index 92 °F
Dew Point 75 °F
Humidity 76%
Rainfall 0.11 in
Snow Depth Not available.
UV 8 out of 12
Pollen Not available.
Air Quality Not available.
Flu Activity Not available.
METAR PGUM 020454Z 08016G23KT 10SM FEW027 SCT049 29/22 A2982 RMK AO2 SLP091 T02940222

More Conditions Fewer Conditions

Pressure 29.80 in
Visibility 10.0 miles
Clouds Few 2700 ft
Scattered Clouds 4900 ft
Heat Index 92 °F
Dew Point 75 °F
Humidity 76%
Rainfall 0.11 in
Snow Depth Not available.
UV 8 out of 12
Pollen Not available.
Air Quality Not available.
Flu Activity Not available.
METAR PGUM 020454Z 08016G23KT 10SM FEW027 SCT049 29/22 A2982 RMK AO2 SLP091 T02940222

More Conditions Fewer Conditions

10-Day Weather Forecast

Almanac

Astronomy

Mar. 02, 2015 Rise Set
Actual Time
Civil Twilight
Nautical Twilight
Astronomical Twilight
Moon
Length of Visible Light
Length of Day
Tomorrow will be .
, % of the Moon is Illuminated

Today's Extremes

State Highs State Lows

Community

WunderPhotos

Upload Photos

1,801,735 photos uploaded!

WunderBlogs® & News

Nearby

Air Quality

  Air Quality AQ Index Pollutant
Not available.

Snow Depth

Station Depth Elevation

Earthquake Activity

City Distance Mag. Time & Date
Minimum magnitude displayed is 2.5.

Coastal Water Temperatures

Place Temperature

Nearby Weather Stations